Time;durP1;ratioP1;P1;durP2;ratioP2;P2;SDS_P1;SDS_P2;PMS_P1;PMS_P2;Temp;Humidity;BMP_temperature;BMP_pressure;BME280_temperature;BME280_humidity;BME280_pressure;Samples;Min_cycle;Max_cycle;Signal;HPM_P1;HPM_P2
2023/06/07 00:02:27;;;;;;;10.60;9.00;;;19.10;99.90;;;;;;2622196;46;20033;31
2023/06/07 00:05:20;;;;;;;11.98;10.18;;;19.10;99.90;;;;;;2603721;54;20846;31
2023/06/07 00:07:55;;;;;;;9.70;8.52;;;19.00;99.90;;;;;;2622079;46;20052;31
2023/06/07 00:10:33;;;;;;;9.82;8.82;;;19.00;99.90;;;;;;2603765;54;20030;31
2023/06/07 00:13:08;;;;;;;11.23;8.93;;;19.00;99.90;;;;;;2603070;54;20859;31
2023/06/07 00:15:42;;;;;;;12.25;9.43;;;19.00;99.90;;;;;;2622268;46;20022;31
2023/06/07 00:18:20;;;;;;;15.77;9.87;;;19.00;99.90;;;;;;2621935;46;20481;31
2023/06/07 00:20:54;;;;;;;12.82;9.60;;;19.00;99.90;;;;;;2622308;46;20831;31
2023/06/07 00:23:30;;;;;;;10.63;9.43;;;18.90;99.90;;;;;;2603802;54;20027;31
2023/06/07 00:26:04;;;;;;;11.27;9.10;;;18.90;99.90;;;;;;2603583;54;20982;31
2023/06/07 00:28:41;;;;;;;12.65;9.40;;;18.90;99.90;;;;;;2603731;54;20034;31
2023/06/07 00:31:16;;;;;;;11.00;8.95;;;18.90;99.90;;;;;;2603538;54;20038;31
2023/06/07 00:33:53;;;;;;;13.10;10.40;;;18.80;99.90;;;;;;2603721;54;20026;31
2023/06/07 00:36:30;;;;;;;12.52;9.90;;;18.80;99.90;;;;;;2603764;54;20072;31
2023/06/07 00:39:05;;;;;;;12.70;10.85;;;18.80;99.90;;;;;;2603832;54;20049;31
2023/06/07 00:41:40;;;;;;;11.73;10.53;;;18.80;99.90;;;;;;2603595;54;20522;31
2023/06/07 00:44:16;;;;;;;17.35;11.70;;;18.80;99.90;;;;;;2603581;54;20339;31
2023/06/07 00:46:51;;;;;;;13.38;10.90;;;18.80;99.90;;;;;;2621805;46;20586;31
2023/06/07 00:49:28;;;;;;;13.27;10.93;;;18.80;99.90;;;;;;2621706;46;20645;31
2023/06/07 00:52:02;;;;;;;14.80;11.02;;;18.80;99.90;;;;;;2603738;54;20031;31
2023/06/07 00:54:36;;;;;;;12.32;9.75;;;18.80;99.90;;;;;;2603475;54;20901;31
2023/06/07 00:57:10;;;;;;;16.98;12.32;;;18.70;99.90;;;;;;2603532;54;20023;31
2023/06/07 00:59:44;;;;;;;12.23;10.65;;;18.70;99.90;;;;;;2702007;39;21430;31
2023/06/07 01:02:18;;;;;;;12.23;10.93;;;18.70;99.90;;;;;;2702115;39;20462;31
2023/06/07 01:04:56;;;;;;;10.50;8.40;;;18.60;99.90;;;;;;2622017;46;20022;31
2023/06/07 01:07:32;;;;;;;11.50;10.00;;;18.70;99.90;;;;;;2603594;54;20030;31
2023/06/07 01:12:43;;;;;;;12.65;11.20;;;18.70;99.90;;;;;;2603601;54;20036;31
2023/06/07 01:15:24;;;;;;;12.43;10.37;;;18.70;99.90;;;;;;2603613;54;20023;31
2023/06/07 01:17:58;;;;;;;13.13;10.57;;;18.70;99.90;;;;;;2603637;54;20581;31
2023/06/07 01:20:35;;;;;;;15.80;11.95;;;18.60;99.90;;;;;;2603458;54;20667;31
2023/06/07 01:23:12;;;;;;;12.53;10.23;;;18.60;99.90;;;;;;2603462;54;20054;31
2023/06/07 01:25:49;;;;;;;11.77;9.75;;;18.60;99.90;;;;;;2603487;54;20631;31
2023/06/07 01:28:22;;;;;;;12.75;10.38;;;18.60;99.90;;;;;;2603533;54;20861;31
2023/06/07 01:30:57;;;;;;;13.13;11.25;;;18.60;99.90;;;;;;2622306;46;20030;31
2023/06/07 01:33:31;;;;;;;14.57;11.83;;;18.60;99.90;;;;;;2603708;54;20032;31
2023/06/07 01:36:07;;;;;;;;;;;18.50;99.90;;;;;;2622158;46;20874;31
2023/06/07 01:38:41;;;;;;;11.15;10.07;;;18.50;99.90;;;;;;2720376;39;20467;31
2023/06/07 01:41:18;;;;;;;12.43;10.13;;;18.50;99.90;;;;;;2603515;54;20037;31
2023/06/07 01:43:52;;;;;;;13.02;10.27;;;18.50;99.90;;;;;;2702024;39;20486;31
2023/06/07 01:46:27;;;;;;;12.85;11.55;;;18.50;99.90;;;;;;2621755;46;20037;31
2023/06/07 01:49:01;;;;;;;13.05;11.13;;;18.50;99.90;;;;;;2603227;54;20026;31
2023/06/07 01:51:36;;;;;;;12.35;9.90;;;18.50;99.90;;;;;;2603323;54;20833;31
2023/06/07 01:54:10;;;;;;;12.82;10.60;;;18.50;99.90;;;;;;2603483;54;20569;31
2023/06/07 01:56:50;;;;;;;12.80;10.52;;;18.50;99.90;;;;;;2603253;54;20022;31
2023/06/07 01:59:28;;;;;;;12.35;9.70;;;18.50;99.90;;;;;;2603290;54;20576;31
2023/06/07 02:02:06;;;;;;;12.32;9.95;;;18.50;99.90;;;;;;2773058;31;20549;31
2023/06/07 02:04:43;;;;;;;11.53;10.00;;;18.50;99.90;;;;;;2603284;54;20108;31
2023/06/07 02:07:22;;;;;;;11.83;9.73;;;18.50;99.90;;;;;;2701638;39;20490;31
2023/06/07 02:09:56;;;;;;;16.70;10.25;;;18.50;99.90;;;;;;2603398;54;20037;31
2023/06/07 02:12:33;;;;;;;11.00;9.05;;;18.40;99.90;;;;;;2603323;54;20030;31
2023/06/07 02:15:09;;;;;;;14.13;10.18;;;18.40;99.90;;;;;;2603509;54;20034;31
2023/06/07 02:17:51;;;;;;;11.38;9.27;;;18.30;99.90;;;;;;2603523;54;20034;31
2023/06/07 02:20:26;;;;;;;13.60;10.03;;;18.40;99.90;;;;;;2701742;39;20501;31
2023/06/07 02:23:00;;;;;;;11.83;10.60;;;18.30;99.90;;;;;;2603116;54;20000;31
2023/06/07 02:25:35;;;;;;;13.47;10.90;;;18.30;99.90;;;;;;2603515;54;20049;31
2023/06/07 02:28:12;;;;;;;15.00;10.20;;;18.30;99.90;;;;;;2603116;54;20033;31
2023/06/07 02:30:47;;;;;;;12.27;10.45;;;18.30;99.90;;;;;;2603408;54;20022;31
2023/06/07 02:33:24;;;;;;;10.63;9.57;;;18.20;99.90;;;;;;2603404;54;20096;31
2023/06/07 02:35:58;;;;;;;12.10;9.43;;;18.30;99.90;;;;;;2621813;46;20038;31
2023/06/07 02:38:32;;;;;;;12.40;9.30;;;18.20;99.90;;;;;;2621797;46;20033;31
2023/06/07 02:41:06;;;;;;;12.38;9.75;;;18.20;99.90;;;;;;2603085;54;20774;31
2023/06/07 02:43:44;;;;;;;12.05;8.65;;;18.20;99.90;;;;;;2603216;54;20030;31
2023/06/07 02:46:18;;;;;;;10.68;9.55;;;18.20;99.90;;;;;;2621856;46;20031;31
2023/06/07 02:48:53;;;;;;;15.45;10.43;;;18.20;99.90;;;;;;2701391;39;20469;31
2023/06/07 02:51:29;;;;;;;13.18;9.77;;;18.20;99.90;;;;;;2603384;54;20852;31
2023/06/07 02:54:04;;;;;;;13.18;10.57;;;18.20;99.90;;;;;;2772895;31;20440;31
2023/06/07 02:56:39;;;;;;;10.00;9.00;;;18.20;99.90;;;;;;2603040;54;20878;31
2023/06/07 02:59:19;;;;;;;11.40;9.40;;;18.20;99.90;;;;;;2603156;54;20912;31
2023/06/07 03:01:55;;;;;;;10.63;9.02;;;18.20;99.90;;;;;;2603154;54;20283;31
2023/06/07 03:04:30;;;;;;;;;;;18.20;99.90;;;;;;2603409;54;20776;31
2023/06/07 03:07:05;;;;;;;;;;;18.20;99.90;;;;;;2702025;39;20436;31
2023/06/07 03:09:47;;;;;;;12.00;10.70;;;18.20;99.90;;;;;;2603123;54;19957;31
2023/06/07 03:12:26;;;;;;;14.85;10.73;;;18.20;99.90;;;;;;2621326;47;20971;31
2023/06/07 03:15:08;;;;;;;13.73;10.60;;;18.10;99.90;;;;;;2603073;54;20026;31
2023/06/07 03:17:46;;;;;;;11.55;9.85;;;18.10;99.90;;;;;;2602979;54;20791;31
2023/06/07 03:20:21;;;;;;;13.50;11.80;;;18.10;99.90;;;;;;2621232;47;20053;31
2023/06/07 03:22:58;;;;;;;12.45;10.20;;;18.10;99.90;;;;;;2621533;47;20082;31
2023/06/07 03:25:35;;;;;;;12.48;9.73;;;18.10;99.90;;;;;;2602756;54;20026;31
2023/06/07 03:28:10;;;;;;;12.20;10.55;;;18.10;99.90;;;;;;2602864;54;20030;31
2023/06/07 03:30:52;;;;;;;12.80;10.90;;;18.10;99.90;;;;;;2603028;54;20062;31
2023/06/07 03:33:33;;;;;;;11.00;10.00;;;18.10;99.90;;;;;;2621431;47;20076;31
2023/06/07 03:36:08;;;;;;;10.65;9.40;;;18.10;99.90;;;;;;2602867;54;20030;31
2023/06/07 03:38:46;;;;;;;14.43;10.45;;;18.00;99.90;;;;;;2621454;47;20885;31
2023/06/07 03:41:21;;;;;;;13.82;10.73;;;18.10;99.90;;;;;;2603081;54;20026;31
2023/06/07 03:43:58;;;;;;;13.85;10.52;;;18.10;99.90;;;;;;2621488;47;20803;31
2023/06/07 03:46:37;;;;;;;10.27;9.20;;;18.10;99.90;;;;;;2621534;47;20101;31
2023/06/07 03:49:11;;;;;;;11.23;9.93;;;18.10;99.90;;;;;;2603044;54;20030;31
2023/06/07 03:51:49;;;;;;;11.90;9.40;;;18.10;99.90;;;;;;2602907;54;20759;31
2023/06/07 03:54:25;;;;;;;12.93;11.23;;;18.10;99.90;;;;;;2602726;54;20030;31
2023/06/07 03:57:00;;;;;;;10.52;9.32;;;18.10;99.90;;;;;;2602718;47;20597;31
2023/06/07 03:59:36;;;;;;;11.00;9.80;;;18.10;99.90;;;;;;2603077;54;20756;31
2023/06/07 04:02:15;;;;;;;10.60;9.43;;;18.10;99.90;;;;;;2622580;46;20833;31
2023/06/07 04:04:52;;;;;;;15.50;9.33;;;18.20;99.90;;;;;;2603612;54;20035;31
2023/06/07 04:07:28;;;;;;;11.05;9.85;;;18.20;99.90;;;;;;2622173;46;20085;31
2023/06/07 04:10:03;;;;;;;12.37;11.03;;;18.20;99.90;;;;;;2603574;54;20037;31
2023/06/07 04:12:38;;;;;;;11.53;10.07;;;18.20;99.90;;;;;;2603597;54;20127;31
2023/06/07 04:15:13;;;;;;;10.48;9.48;;;18.20;99.90;;;;;;2603463;54;20274;31
2023/06/07 04:17:51;;;;;;;11.70;9.80;;;18.20;99.90;;;;;;2622260;46;20796;31
2023/06/07 04:20:27;;;;;;;15.30;11.65;;;18.30;99.90;;;;;;2603739;54;21126;31
2023/06/07 04:23:03;;;;;;;12.10;10.45;;;18.30;99.90;;;;;;2622312;46;20081;31
2023/06/07 04:25:39;;;;;;;11.93;10.65;;;18.30;99.90;;;;;;2603437;54;20100;31
2023/06/07 04:28:15;;;;;;;13.50;10.30;;;18.30;99.90;;;;;;2603711;54;20073;31
2023/06/07 04:30:51;;;;;;;10.35;9.00;;;18.30;99.90;;;;;;2621697;46;20030;31
2023/06/07 04:33:32;;;;;;;13.98;10.77;;;18.30;99.90;;;;;;2622034;46;20033;31
2023/06/07 04:36:08;;;;;;;10.15;9.15;;;18.30;99.90;;;;;;2603472;54;20046;31
2023/06/07 04:38:49;;;;;;;11.75;9.65;;;18.30;99.90;;;;;;2603602;54;19984;31
2023/06/07 04:41:32;;;;;;;12.45;11.10;;;18.30;99.90;;;;;;2621806;46;20884;31
2023/06/07 04:44:08;;;;;;;12.10;9.40;;;18.30;99.90;;;;;;2603441;54;20026;31
2023/06/07 04:46:49;;;;;;;11.45;9.05;;;18.30;99.90;;;;;;2603542;54;20949;31
2023/06/07 04:49:28;;;;;;;12.68;9.07;;;18.30;99.90;;;;;;2622346;46;20912;31
2023/06/07 04:52:05;;;;;;;11.27;8.95;;;18.40;99.90;;;;;;2603431;54;20983;31
2023/06/07 04:54:41;;;;;;;11.63;9.88;;;18.40;99.90;;;;;;2603702;54;20022;31
2023/06/07 04:57:17;;;;;;;13.80;9.85;;;18.40;99.90;;;;;;2622006;46;20567;31
2023/06/07 04:59:55;;;;;;;13.63;11.27;;;18.40;99.90;;;;;;2603506;54;20034;31
2023/06/07 05:02:44;;;;;;;13.00;11.60;;;18.40;99.90;;;;;;2603425;54;20026;31
2023/06/07 05:05:25;;;;;;;12.63;11.32;;;18.50;99.90;;;;;;2603616;54;20822;31
2023/06/07 05:08:01;;;;;;;12.27;10.98;;;18.50;99.90;;;;;;2603453;54;20034;31
2023/06/07 05:10:38;;;;;;;19.90;14.57;;;18.50;99.90;;;;;;2603258;54;20022;31
2023/06/07 05:13:15;;;;;;;18.10;11.60;;;18.50;99.90;;;;;;2621915;46;20966;31
2023/06/07 05:15:52;;;;;;;14.95;10.50;;;18.50;99.90;;;;;;2603483;54;20026;31
2023/06/07 05:18:31;;;;;;;16.85;12.55;;;18.50;99.90;;;;;;2603370;54;20869;31
2023/06/07 05:21:10;;;;;;;15.38;13.73;;;18.50;99.90;;;;;;2603635;54;20852;31
2023/06/07 05:23:51;;;;;;;17.90;13.68;;;18.50;99.90;;;;;;2603435;54;20045;31
2023/06/07 05:26:26;;;;;;;20.42;11.98;;;18.50;99.90;;;;;;2621622;46;21337;31
2023/06/07 05:29:03;;;;;;;11.20;10.10;;;18.60;99.90;;;;;;2602761;54;20879;31
2023/06/07 05:31:39;;;;;;;17.80;10.57;;;18.60;99.90;;;;;;2603321;54;20754;31
2023/06/07 05:34:16;;;;;;;21.52;14.95;;;18.70;99.90;;;;;;2621917;46;20934;31
2023/06/07 05:36:55;;;;;;;14.65;10.52;;;18.70;99.90;;;;;;2702272;39;20983;31
2023/06/07 05:39:34;;;;;;;12.75;9.00;;;18.70;99.90;;;;;;2603546;54;20503;31
2023/06/07 05:42:14;;;;;;;11.70;8.90;;;18.70;99.90;;;;;;2603541;54;20030;31
2023/06/07 05:44:52;;;;;;;13.10;10.02;;;18.60;99.90;;;;;;2703903;39;20482;31
2023/06/07 05:47:28;;;;;;;13.35;10.50;;;18.60;99.90;;;;;;2603341;54;20030;31
2023/06/07 05:50:04;;;;;;;16.05;9.95;;;18.60;99.90;;;;;;2603416;54;20148;31
2023/06/07 05:52:43;;;;;;;12.10;9.93;;;18.60;99.90;;;;;;2603361;54;20914;31
2023/06/07 05:55:18;;;;;;;11.38;9.75;;;18.70;99.90;;;;;;2603233;54;20023;31
2023/06/07 05:57:53;;;;;;;14.57;11.23;;;18.70;99.90;;;;;;2603310;54;20939;31
2023/06/07 06:00:31;;;;;;;11.00;9.75;;;18.70;99.90;;;;;;2621767;46;20702;31
2023/06/07 06:03:07;;;;;;;13.68;10.68;;;18.70;99.90;;;;;;2603511;54;20766;31
2023/06/07 06:05:45;;;;;;;15.95;10.07;;;18.70;99.90;;;;;;2701554;39;20626;31
2023/06/07 06:08:25;;;;;;;13.17;9.57;;;18.70;99.90;;;;;;2603487;54;20026;31
2023/06/07 06:10:59;;;;;;;15.48;9.38;;;18.70;99.90;;;;;;2603344;54;20585;31
2023/06/07 06:13:35;;;;;;;11.47;10.07;;;18.80;99.90;;;;;;2603311;54;20035;31
2023/06/07 06:16:10;;;;;;;11.73;9.18;;;18.80;99.90;;;;;;2603159;54;20804;31
2023/06/07 06:18:47;;;;;;;11.82;9.15;;;18.90;99.90;;;;;;2621684;46;20089;31
2023/06/07 06:21:23;;;;;;;19.05;9.90;;;18.90;99.90;;;;;;2603215;54;20854;31
2023/06/07 06:24:02;;;;;;;17.50;10.35;;;18.90;99.90;;;;;;2603350;54;20748;31
2023/06/07 06:26:38;;;;;;;18.42;10.63;;;18.90;99.90;;;;;;2603348;54;20586;31
2023/06/07 06:29:13;;;;;;;;;;;19.00;99.90;;;;;;2603432;54;20865;31
2023/06/07 06:31:48;;;;;;;15.90;9.30;;;19.00;99.90;;;;;;2603342;54;21348;31
2023/06/07 06:34:24;;;;;;;25.35;10.77;;;19.00;99.90;;;;;;2603214;54;20859;31
2023/06/07 06:37:00;;;;;;;12.52;9.82;;;19.00;99.90;;;;;;2603101;54;20886;31
2023/06/07 06:39:38;;;;;;;16.40;10.33;;;19.00;99.90;;;;;;2602445;54;20604;31
2023/06/07 06:42:16;;;;;;;11.35;9.70;;;19.10;99.90;;;;;;2603316;54;20031;31
2023/06/07 06:45:15;;;;;;;12.07;9.27;;;19.10;99.90;;;;;;2720165;39;20481;31
2023/06/07 06:47:50;;;;;;;12.90;9.50;;;19.10;99.90;;;;;;2602985;54;20872;31
2023/06/07 06:50:29;;;;;;;18.80;9.30;;;19.20;99.90;;;;;;2603109;54;20887;31
2023/06/07 06:53:09;;;;;;;14.80;10.23;;;19.20;99.90;;;;;;2603267;54;20035;31
2023/06/07 06:55:50;;;;;;;15.55;9.73;;;19.30;99.90;;;;;;2603387;54;20879;31
2023/06/07 06:58:27;;;;;;;16.05;10.20;;;19.30;99.90;;;;;;2603072;54;20049;31
2023/06/07 07:01:03;;;;;;;24.27;10.17;;;19.40;99.90;;;;;;2701610;39;20564;31
2023/06/07 07:03:42;;;;;;;13.75;8.90;;;19.40;99.90;;;;;;2621178;47;20526;31
2023/06/07 07:08:58;;;;;;;12.65;8.95;;;19.50;99.90;;;;;;2603079;54;20899;31
2023/06/07 07:11:37;;;;;;;;;;;19.50;99.90;;;;;;2621636;47;20099;31
2023/06/07 07:14:13;;;;;;;15.88;10.32;;;19.60;99.90;;;;;;2621104;47;20828;31
2023/06/07 07:16:50;;;;;;;13.63;9.65;;;19.70;99.90;;;;;;2602925;54;20030;31
2023/06/07 07:19:27;;;;;;;15.70;8.90;;;19.70;99.90;;;;;;2603159;54;20029;31
2023/06/07 07:22:04;;;;;;;17.20;8.70;;;19.80;99.90;;;;;;2621415;47;20046;31
2023/06/07 07:24:39;;;;;;;19.80;8.43;;;19.80;99.90;;;;;;2621530;47;20026;31
2023/06/07 07:27:21;;;;;;;15.43;9.17;;;19.90;99.90;;;;;;2603007;54;20789;31
2023/06/07 07:29:56;;;;;;;11.30;8.70;;;20.10;99.90;;;;;;2603079;54;20832;31
2023/06/07 07:32:36;;;;;;;11.25;8.98;;;20.20;99.90;;;;;;2621513;47;20022;31
2023/06/07 07:35:14;;;;;;;12.52;8.85;;;20.20;99.90;;;;;;2603591;54;20568;31
2023/06/07 07:37:53;;;;;;;13.40;9.38;;;20.30;99.90;;;;;;2603833;54;20022;31
2023/06/07 07:40:29;;;;;;;13.10;7.88;;;20.30;99.90;;;;;;2603806;54;20085;31
2023/06/07 07:43:10;;;;;;;12.40;7.27;;;20.40;99.90;;;;;;2603842;54;20029;31
2023/06/07 07:45:47;;;;;;;13.48;7.70;;;20.50;99.90;;;;;;2622196;46;20235;31
2023/06/07 07:48:23;;;;;;;11.45;8.10;;;20.50;99.90;;;;;;2622251;46;20094;31
2023/06/07 07:51:01;;;;;;;13.55;8.30;;;20.60;99.90;;;;;;2603461;54;25134;31
2023/06/07 07:53:43;;;;;;;10.20;8.00;;;20.60;99.90;;;;;;2603796;54;20593;31
2023/06/07 07:56:19;;;;;;;12.05;9.00;;;20.70;99.90;;;;;;2622306;46;20030;31
2023/06/07 07:58:59;;;;;;;12.55;8.30;;;20.70;99.90;;;;;;2622375;46;20026;31
2023/06/07 08:01:35;;;;;;;12.82;8.68;;;20.80;99.90;;;;;;2603647;54;20710;31
2023/06/07 08:04:12;;;;;;;12.57;8.77;;;20.80;99.90;;;;;;2603924;54;20557;31
2023/06/07 08:06:48;;;;;;;14.13;8.32;;;20.90;99.90;;;;;;2603964;54;20829;31
2023/06/07 08:09:24;;;;;;;13.32;9.52;;;21.00;99.90;;;;;;2622411;46;20026;31
2023/06/07 08:12:00;;;;;;;10.68;9.30;;;21.00;99.90;;;;;;2622163;46;20648;31
2023/06/07 08:14:40;;;;;;;11.00;9.43;;;21.00;99.90;;;;;;2603781;54;20585;31
2023/06/07 08:17:16;;;;;;;10.00;8.85;;;21.10;99.90;;;;;;2603657;54;20099;31
2023/06/07 08:19:54;;;;;;;14.50;10.38;;;21.10;99.90;;;;;;2622092;46;20051;31
2023/06/07 08:22:30;;;;;;;12.73;8.93;;;21.10;99.90;;;;;;2621872;46;20073;31
2023/06/07 08:25:08;;;;;;;13.45;9.95;;;21.10;99.90;;;;;;2702227;39;20462;31
2023/06/07 08:27:44;;;;;;;14.88;9.15;;;21.20;99.90;;;;;;2603684;54;20605;31
2023/06/07 08:30:24;;;;;;;14.13;10.23;;;21.30;99.90;;;;;;2603834;54;20818;31
2023/06/07 08:33:01;;;;;;;16.63;9.60;;;21.40;99.90;;;;;;2603791;54;20053;31
2023/06/07 08:35:37;;;;;;;14.15;9.35;;;21.80;99.90;;;;;;2603788;54;20027;31
2023/06/07 08:38:15;;;;;;;14.88;10.00;;;22.00;99.90;;;;;;2603408;54;20038;31
2023/06/07 08:40:51;;;;;;;17.67;9.45;;;22.20;99.90;;;;;;2603763;54;20038;31
2023/06/07 08:43:27;;;;;;;15.65;8.90;;;22.50;99.90;;;;;;2621647;46;20839;31
2023/06/07 08:46:07;;;;;;;18.85;8.45;;;22.80;99.90;;;;;;2603170;54;20078;31
2023/06/07 08:48:44;;;;;;;13.93;8.30;;;23.20;99.90;;;;;;2603559;54;20033;31
2023/06/07 08:51:22;;;;;;;14.50;8.00;;;23.40;99.90;;;;;;2603572;54;20035;31
2023/06/07 08:53:59;;;;;;;9.73;7.85;;;23.70;99.90;;;;;;2622340;46;20918;31
2023/06/07 08:56:38;;;;;;;11.20;7.25;;;24.10;99.90;;;;;;2603365;54;20859;31
2023/06/07 08:59:14;;;;;;;10.82;7.70;;;24.50;99.90;;;;;;2602797;54;20777;31
2023/06/07 09:01:55;;;;;;;10.02;6.60;;;24.80;99.90;;;;;;2603630;54;20033;31
2023/06/07 09:04:33;;;;;;;12.63;7.15;;;25.20;99.90;;;;;;2603681;54;20042;31
2023/06/07 09:07:09;;;;;;;14.45;6.60;;;25.40;99.90;;;;;;2612771;46;20772;31
2023/06/07 09:09:44;;;;;;;7.43;5.90;;;25.70;99.90;;;;;;2603445;54;20030;31
2023/06/07 09:12:20;;;;;;;8.53;5.77;;;25.90;99.90;;;;;;2603145;54;20890;31
2023/06/07 09:14:57;;;;;;;11.63;6.03;;;26.30;99.90;;;;;;2603679;54;20053;31
2023/06/07 09:17:55;;;;;;;10.40;5.53;;;26.60;99.90;;;;;;2603610;54;20037;31
2023/06/07 09:20:33;;;;;;;8.95;5.40;;;26.90;99.90;;;;;;2622045;46;20049;31
2023/06/07 09:23:14;;;;;;;7.35;5.15;;;27.30;99.90;;;;;;2603612;54;20031;31
2023/06/07 09:25:52;;;;;;;8.17;5.60;;;27.60;99.90;;;;;;2603491;54;20085;31
2023/06/07 09:28:28;;;;;;;13.18;5.53;;;27.70;99.90;;;;;;2603702;54;20250;31
2023/06/07 09:31:04;;;;;;;;;;;28.00;99.90;;;;;;2604013;54;20573;31
2023/06/07 09:33:46;;;;;;;6.97;5.00;;;28.20;99.90;;;;;;2603529;54;19938;31
2023/06/07 09:36:22;;;;;;;8.53;5.93;;;28.40;99.90;;;;;;2622131;46;20239;31
2023/06/07 09:38:58;;;;;;;7.50;5.25;;;28.40;99.90;;;;;;2603440;54;20320;31
2023/06/07 09:41:35;;;;;;;6.75;4.65;;;28.60;99.90;;;;;;2603554;54;20950;31
2023/06/07 09:44:13;;;;;;;12.07;5.70;;;28.90;99.90;;;;;;2603472;54;20106;31
2023/06/07 09:46:51;;;;;;;7.00;5.17;;;29.10;99.90;;;;;;2603552;54;20057;31
2023/06/07 09:49:27;;;;;;;6.63;5.07;;;29.20;99.90;;;;;;2603644;54;20883;31
2023/06/07 09:52:08;;;;;;;6.65;5.03;;;29.30;99.90;;;;;;2603650;54;20908;31
2023/06/07 09:54:47;;;;;;;11.80;5.23;;;29.40;99.90;;;;;;2603546;54;20490;31
2023/06/07 09:57:55;;;;;;;6.90;5.05;;;29.50;99.90;;;;;;2603537;54;20818;31
2023/06/07 10:00:31;;;;;;;5.88;4.60;;;29.50;99.90;;;;;;2603134;54;20732;31
2023/06/07 10:03:12;;;;;;;6.83;4.90;;;29.70;99.90;;;;;;2603619;54;20033;31
2023/06/07 10:05:51;;;;;;;7.10;4.95;;;29.80;99.90;;;;;;2603769;54;20031;31
2023/06/07 10:11:04;;;;;;;6.65;5.15;;;30.10;99.90;;;;;;2603518;54;20086;31
2023/06/07 10:13:40;;;;;;;5.88;4.72;;;30.20;99.90;;;;;;2602575;54;20867;31
2023/06/07 10:16:16;;;;;;;8.77;5.03;;;30.20;99.90;;;;;;2701878;39;20521;31
2023/06/07 10:18:56;;;;;;;11.57;5.40;;;30.30;99.90;;;;;;2603327;54;20085;31
2023/06/07 10:21:35;;;;;;;11.25;5.47;;;30.40;98.80;;;;;;2603227;54;20038;31
2023/06/07 10:24:10;;;;;;;9.85;4.80;;;30.30;98.50;;;;;;2603359;54;20027;31
2023/06/07 10:26:55;;;;;;;7.20;5.38;;;30.40;98.80;;;;;;2701896;39;20566;31
2023/06/07 10:29:34;;;;;;;6.65;4.90;;;30.40;96.10;;;;;;2603238;54;20023;31
2023/06/07 10:32:15;;;;;;;8.75;4.72;;;30.40;98.70;;;;;;2622024;46;20027;31
2023/06/07 10:34:52;;;;;;;5.15;4.63;;;30.50;97.80;;;;;;2603134;54;20031;31
2023/06/07 10:37:30;;;;;;;8.15;4.50;;;30.70;98.20;;;;;;2702085;39;20992;31
2023/06/07 10:40:10;;;;;;;4.90;4.40;;;31.00;96.30;;;;;;2603251;54;20033;31
2023/06/07 10:42:50;;;;;;;7.35;4.47;;;31.20;96.70;;;;;;2603449;54;20089;31
2023/06/07 10:45:28;;;;;;;6.93;4.32;;;31.40;96.70;;;;;;2603220;54;20022;31
2023/06/07 10:48:35;;;;;;;7.40;4.00;;;31.30;93.50;;;;;;2621835;46;20887;31
2023/06/07 10:51:13;;;;;;;5.43;3.88;;;31.20;91.80;;;;;;2603125;54;20630;31
2023/06/07 10:53:53;;;;;;;9.47;4.23;;;31.10;93.10;;;;;;2603053;54;20820;31
2023/06/07 10:56:35;;;;;;;6.50;4.40;;;31.10;93.80;;;;;;2603093;54;20037;31
2023/06/07 10:59:26;;;;;;;5.97;4.35;;;31.30;92.00;;;;;;2701794;39;20493;31
2023/06/07 11:02:46;;;;;;;6.18;4.40;;;31.10;91.50;;;;;;2621700;46;20923;31
2023/06/07 11:05:24;;;;;;;5.65;4.40;;;30.90;92.00;;;;;;2613693;47;20027;31
2023/06/07 11:07:58;;;;;;;8.15;4.88;;;30.70;91.70;;;;;;2603248;54;20028;31
2023/06/07 11:10:37;;;;;;;7.23;4.83;;;30.40;93.30;;;;;;2603972;54;20027;31
2023/06/07 11:15:49;;;;;;;6.95;4.47;;;29.90;94.50;;;;;;2604094;54;20061;31
2023/06/07 11:18:26;;;;;;;11.20;4.75;;;29.70;94.50;;;;;;2622540;46;20153;31
2023/06/07 11:21:03;;;;;;;7.00;4.63;;;29.70;95.90;;;;;;2604261;54;20095;31
2023/06/07 11:23:41;;;;;;;6.72;4.95;;;29.50;95.50;;;;;;2622702;46;20022;31
2023/06/07 11:26:19;;;;;;;7.28;4.88;;;29.70;96.90;;;;;;2604177;54;20853;31
2023/06/07 11:28:56;;;;;;;7.25;4.97;;;29.90;97.10;;;;;;2603151;54;19941;31
2023/06/07 11:31:39;;;;;;;8.77;4.22;;;30.10;96.80;;;;;;2603009;54;20034;31
2023/06/07 11:34:17;;;;;;;8.80;4.28;;;30.20;95.20;;;;;;2622550;46;20097;31
2023/06/07 11:36:54;;;;;;;7.22;3.90;;;30.20;93.50;;;;;;2604118;54;20030;31
2023/06/07 11:39:37;;;;;;;6.43;4.45;;;30.10;91.90;;;;;;2604060;54;20225;31
2023/06/07 11:42:13;;;;;;;5.70;3.67;;;29.90;91.60;;;;;;2622599;46;20044;31
2023/06/07 11:44:51;;;;;;;6.00;4.30;;;29.80;91.20;;;;;;2603883;54;20549;31
2023/06/07 11:47:31;;;;;;;5.88;3.67;;;29.60;88.60;;;;;;2603843;54;20774;31
2023/06/07 11:50:20;;;;;;;6.40;4.20;;;29.40;88.00;;;;;;2622508;46;20030;31
2023/06/07 11:52:58;;;;;;;4.90;4.03;;;29.20;88.30;;;;;;2603011;54;21238;31
2023/06/07 11:55:35;;;;;;;6.07;4.53;;;29.00;88.90;;;;;;2603764;54;20022;31
2023/06/07 11:58:11;;;;;;;10.48;4.10;;;28.80;90.50;;;;;;2602999;54;20064;31
2023/06/07 12:00:49;;;;;;;7.82;4.30;;;28.30;88.00;;;;;;2603950;54;20034;31
2023/06/07 12:03:32;;;;;;;6.82;4.03;;;27.80;90.60;;;;;;2774047;31;21162;31
2023/06/07 12:06:11;;;;;;;6.97;4.20;;;27.50;90.60;;;;;;2603956;46;20908;31
2023/06/07 12:08:52;;;;;;;5.10;4.20;;;27.00;92.20;;;;;;2603786;54;20105;31
2023/06/07 12:11:28;;;;;;;8.10;4.70;;;26.60;95.00;;;;;;2622279;46;20053;31
2023/06/07 12:14:06;;;;;;;7.83;4.37;;;26.40;99.90;;;;;;2622258;46;20031;31
2023/06/07 12:16:42;;;;;;;6.28;5.53;;;26.20;99.90;;;;;;2619475;46;20023;31
2023/06/07 12:19:25;;;;;;;10.32;5.38;;;26.00;99.90;;;;;;2603571;54;20113;31
2023/06/07 12:22:16;;;;;;;7.47;5.32;;;25.80;99.90;;;;;;2603613;54;20114;31
2023/06/07 12:24:54;;;;;;;7.00;5.13;;;25.60;99.90;;;;;;2603933;54;20053;31
2023/06/07 12:27:31;;;;;;;12.43;5.70;;;25.40;99.90;;;;;;2621903;46;20032;31
2023/06/07 12:30:11;;;;;;;6.60;5.50;;;25.30;99.90;;;;;;2603779;54;20465;31
2023/06/07 12:32:49;;;;;;;9.18;5.75;;;25.20;99.90;;;;;;2603022;54;20241;31
2023/06/07 12:35:33;;;;;;;6.18;5.18;;;25.10;99.90;;;;;;2621060;46;20631;31
2023/06/07 12:38:13;;;;;;;8.95;6.35;;;25.00;99.90;;;;;;2604052;54;20817;31
2023/06/07 12:40:52;;;;;;;7.38;6.40;;;24.80;99.90;;;;;;2602750;54;20880;31
2023/06/07 12:43:29;;;;;;;13.82;7.05;;;24.70;99.90;;;;;;2615867;46;20034;31
2023/06/07 12:46:05;;;;;;;8.07;5.90;;;24.60;99.90;;;;;;2603702;54;20947;31
2023/06/07 12:48:44;;;;;;;7.72;6.03;;;24.50;99.90;;;;;;2603578;54;20028;31
2023/06/07 12:51:25;;;;;;;11.43;6.20;;;24.40;99.90;;;;;;2622274;46;20860;31
2023/06/07 12:54:01;;;;;;;8.38;6.18;;;24.40;99.90;;;;;;2603552;54;20108;31
2023/06/07 12:56:38;;;;;;;8.88;5.75;;;24.40;99.90;;;;;;2603469;54;20059;31
2023/06/07 12:59:13;;;;;;;7.55;6.18;;;24.40;99.90;;;;;;2603794;54;20034;31
2023/06/07 13:01:51;;;;;;;9.70;6.68;;;24.30;99.90;;;;;;2603696;54;20037;31
2023/06/07 13:04:35;;;;;;;7.68;5.72;;;24.40;99.90;;;;;;2603338;54;20029;31
2023/06/07 13:07:14;;;;;;;8.47;6.20;;;24.30;99.90;;;;;;2603457;54;20052;31
2023/06/07 13:09:49;;;;;;;8.30;6.10;;;24.30;99.90;;;;;;2603590;54;20892;31
2023/06/07 13:12:24;;;;;;;7.97;5.68;;;24.30;99.90;;;;;;2621847;46;20500;31
2023/06/07 13:14:59;;;;;;;10.60;5.67;;;24.30;99.90;;;;;;2701825;39;21317;31
2023/06/07 13:17:34;;;;;;;9.65;5.75;;;24.30;99.90;;;;;;2603387;54;20038;31
2023/06/07 13:20:12;;;;;;;7.55;5.65;;;24.30;99.90;;;;;;2603452;54;20870;31
2023/06/07 13:22:54;;;;;;;9.52;5.50;;;24.30;99.90;;;;;;2622098;46;20027;31
2023/06/07 13:25:29;;;;;;;7.28;5.55;;;24.40;99.90;;;;;;2603379;54;20026;31
2023/06/07 13:28:04;;;;;;;6.97;5.32;;;24.40;99.90;;;;;;2603397;54;20163;31
2023/06/07 13:30:39;;;;;;;11.17;5.80;;;24.40;99.90;;;;;;2603270;54;20085;31
2023/06/07 13:33:21;;;;;;;9.93;6.20;;;24.50;99.90;;;;;;2603170;54;20573;31
2023/06/07 13:35:57;;;;;;;11.32;5.75;;;24.60;99.90;;;;;;2603455;54;20243;31
2023/06/07 13:38:35;;;;;;;11.60;6.78;;;24.60;99.90;;;;;;2603128;54;20030;31
2023/06/07 13:41:10;;;;;;;11.25;6.00;;;24.60;99.90;;;;;;2603516;54;20034;31
2023/06/07 13:43:47;;;;;;;9.40;6.10;;;24.60;99.90;;;;;;2603332;54;20077;31
2023/06/07 13:46:41;;;;;;;8.87;5.70;;;24.70;99.90;;;;;;2603579;54;20045;31
2023/06/07 13:49:18;;;;;;;10.48;5.55;;;24.70;99.90;;;;;;2603597;54;20254;31
2023/06/07 13:51:54;;;;;;;10.63;5.90;;;24.60;99.90;;;;;;2603429;54;20591;31
2023/06/07 13:54:33;;;;;;;6.47;5.37;;;24.60;99.90;;;;;;2603398;54;20033;31